Time;durP1;ratioP1;P1;durP2;ratioP2;P2;SDS_P1;SDS_P2;PMS_P1;PMS_P2;Temp;Humidity;BMP_temperature;BMP_pressure;BME280_temperature;BME280_humidity;BME280_pressure;Samples;Min_cycle;Max_cycle;Signal;HPM_P1;HPM_P2
2023/09/15 00:01:08;;;;;;;13.27;5.32;;;;;;;;;;5107626;27;20198;-73
2023/09/15 00:03:33;;;;;;;13.07;5.20;;;;;;;;;;5126569;27;20183;-73
2023/09/15 00:05:59;;;;;;;11.05;5.53;;;;;;;;;;5099474;28;20198;-74
2023/09/15 00:08:24;;;;;;;13.00;5.60;;;;;;;;;;5114408;27;20215;-73
2023/09/15 00:10:49;;;;;;;16.75;5.50;;;;;;;;;;5118580;27;20413;-75
2023/09/15 00:13:15;;;;;;;11.50;5.55;;;;;;;;;;5114395;27;20611;-74
2023/09/15 00:15:41;;;;;;;8.60;5.05;;;;;;;;;;5104441;27;20679;-74
2023/09/15 00:18:06;;;;;;;6.70;5.20;;;;;;;;;;5123287;27;20202;-74
2023/09/15 00:20:32;;;;;;;15.32;5.30;;;;;;;;;;5115750;27;20565;-74
2023/09/15 00:22:58;;;;;;;13.68;5.53;;;;;;;;;;5122965;27;20182;-74
2023/09/15 00:25:29;;;;;;;10.63;5.70;;;;;;;;;;5115221;27;20194;-74
2023/09/15 00:27:57;;;;;;;9.20;5.00;;;;;;;;;;5114224;27;20556;-74
2023/09/15 00:30:24;;;;;;;10.57;5.25;;;;;;;;;;5110194;27;20676;-74
2023/09/15 00:32:50;;;;;;;10.40;5.20;;;;;;;;;;5117652;27;20192;-74
2023/09/15 00:35:18;;;;;;;11.55;5.50;;;;;;;;;;5123565;27;20186;-74
2023/09/15 00:37:46;;;;;;;12.48;5.80;;;;;;;;;;5109370;27;20530;-74
2023/09/15 00:40:12;;;;;;;9.95;5.32;;;;;;;;;;5123297;27;20187;-74
2023/09/15 00:42:37;;;;;;;9.63;5.47;;;;;;;;;;5117223;27;20561;-74
2023/09/15 00:45:07;;;;;;;12.70;6.22;;;;;;;;;;5122825;27;20190;-74
2023/09/15 00:47:34;;;;;;;11.05;5.72;;;;;;;;;;5116437;27;20575;-74
2023/09/15 00:50:02;;;;;;;10.60;6.30;;;;;;;;;;5110688;27;20191;-74
2023/09/15 00:52:29;;;;;;;12.57;5.85;;;;;;;;;;5112368;27;20188;-74
2023/09/15 00:54:55;;;;;;;10.20;5.18;;;;;;;;;;5108061;27;20187;-74
2023/09/15 00:57:21;;;;;;;10.88;5.18;;;;;;;;;;5118994;27;20238;-74
2023/09/15 00:59:48;;;;;;;16.52;6.18;;;;;;;;;;5110965;27;20187;-74
2023/09/15 01:02:14;;;;;;;11.02;5.43;;;;;;;;;;5120332;27;20190;-74
2023/09/15 01:04:40;;;;;;;8.57;5.20;;;;;;;;;;5124485;27;20546;-74
2023/09/15 01:07:07;;;;;;;11.23;5.53;;;;;;;;;;5101214;28;20198;-74
2023/09/15 01:09:32;;;;;;;15.30;5.95;;;;;;;;;;5113285;27;20733;-74
2023/09/15 01:11:58;;;;;;;12.95;5.93;;;;;;;;;;5113730;27;20312;-74
2023/09/15 01:14:23;;;;;;;13.60;5.68;;;;;;;;;;5103205;28;20646;-74
2023/09/15 01:16:55;;;;;;;12.82;5.63;;;;;;;;;;5118698;27;20190;-73
2023/09/15 01:19:54;;;;;;;10.15;5.75;;;;;;;;;;5121202;28;20221;-74
2023/09/15 01:22:41;;;;;;;12.00;5.90;;;;;;;;;;5121385;28;20189;-74
2023/09/15 01:25:36;;;;;;;11.75;6.00;;;;;;;;;;5124132;27;20183;-74
2023/09/15 01:28:14;;;;;;;10.68;5.20;;;;;;;;;;5118420;27;20210;-75
2023/09/15 01:30:41;;;;;;;15.18;6.07;;;;;;;;;;5123175;27;20632;-74
2023/09/15 01:33:09;;;;;;;8.18;5.22;;;;;;;;;;5128143;27;20183;-74
2023/09/15 01:35:34;;;;;;;10.35;5.75;;;;;;;;;;5103692;28;20183;-74
2023/09/15 01:38:00;;;;;;;10.15;6.18;;;;;;;;;;5126192;27;20229;-74
2023/09/15 01:40:26;;;;;;;11.95;5.45;;;;;;;;;;5127835;27;20325;-74
2023/09/15 01:42:54;;;;;;;9.93;5.72;;;;;;;;;;5118908;27;20187;-74
2023/09/15 01:45:19;;;;;;;8.32;5.60;;;;;;;;;;5121022;27;20532;-74
2023/09/15 01:47:46;;;;;;;8.68;6.00;;;;;;;;;;5114006;27;20203;-74
2023/09/15 01:50:12;;;;;;;11.73;5.82;;;;;;;;;;5118037;27;20178;-74
2023/09/15 01:52:38;;;;;;;14.35;6.35;;;;;;;;;;5132291;27;20602;-74
2023/09/15 01:55:06;;;;;;;16.00;6.22;;;;;;;;;;5132180;27;20269;-74
2023/09/15 01:57:31;;;;;;;9.40;5.30;;;;;;;;;;5142632;27;20313;-74
2023/09/15 01:59:58;;;;;;;13.00;5.90;;;;;;;;;;5137588;27;20217;-74
2023/09/15 02:02:24;;;;;;;11.73;6.05;;;;;;;;;;5142389;27;20632;-74
2023/09/15 02:04:49;;;;;;;9.82;5.70;;;;;;;;;;5134440;27;20174;-74
2023/09/15 02:07:15;;;;;;;10.80;6.32;;;;;;;;;;5132238;27;20194;-74
2023/09/15 02:09:40;;;;;;;11.98;5.43;;;;;;;;;;5121539;27;20554;-74
2023/09/15 02:12:06;;;;;;;15.20;6.63;;;;;;;;;;5144524;27;20513;-74
2023/09/15 02:14:32;;;;;;;12.85;5.75;;;;;;;;;;5127187;27;20190;-74
2023/09/15 02:16:57;;;;;;;11.13;6.15;;;;;;;;;;5115130;27;20322;-74
2023/09/15 02:19:24;;;;;;;10.10;5.85;;;;;;;;;;5137660;27;20182;-74
2023/09/15 02:21:49;;;;;;;9.63;5.53;;;;;;;;;;5140450;27;20190;-74
2023/09/15 02:24:16;;;;;;;10.10;5.88;;;;;;;;;;5117044;27;20557;-74
2023/09/15 02:26:41;;;;;;;8.05;5.40;;;;;;;;;;5125229;27;20898;-74
2023/09/15 02:29:07;;;;;;;8.75;5.30;;;;;;;;;;5107879;27;20285;-74
2023/09/15 02:31:32;;;;;;;9.70;5.78;;;;;;;;;;5125154;27;20197;-74
2023/09/15 02:34:00;;;;;;;8.20;5.40;;;;;;;;;;5118391;27;20278;-74
2023/09/15 02:36:26;;;;;;;13.85;6.18;;;;;;;;;;5129160;27;20185;-74
2023/09/15 02:38:54;;;;;;;10.05;6.07;;;;;;;;;;5132410;27;20195;-74
2023/09/15 02:41:20;;;;;;;8.77;5.57;;;;;;;;;;5128224;27;20187;-74
2023/09/15 02:43:46;;;;;;;9.38;6.43;;;;;;;;;;5142898;27;20539;-74
2023/09/15 02:46:12;;;;;;;8.73;5.80;;;;;;;;;;5150519;27;20183;-74
2023/09/15 02:48:37;;;;;;;10.80;5.60;;;;;;;;;;5139032;27;20210;-74
2023/09/15 02:51:04;;;;;;;14.52;5.80;;;;;;;;;;5112366;27;20187;-73
2023/09/15 02:53:30;;;;;;;11.70;6.05;;;;;;;;;;5122273;27;20198;-74
2023/09/15 02:56:00;;;;;;;11.77;6.35;;;;;;;;;;5130966;27;20225;-74
2023/09/15 02:58:29;;;;;;;10.20;7.03;;;;;;;;;;5125871;27;20257;-74
2023/09/15 03:00:54;;;;;;;10.75;6.28;;;;;;;;;;5130135;27;20196;-75
2023/09/15 03:03:23;;;;;;;12.60;6.88;;;;;;;;;;5141905;27;20186;-75
2023/09/15 03:05:48;;;;;;;10.25;6.05;;;;;;;;;;5118862;27;20269;-73
2023/09/15 03:08:14;;;;;;;15.70;8.13;;;;;;;;;;5131424;27;20286;-75
2023/09/15 03:10:40;;;;;;;13.82;6.38;;;;;;;;;;5145804;27;20189;-74
2023/09/15 03:13:05;;;;;;;15.43;6.75;;;;;;;;;;5144884;27;20186;-74
2023/09/15 03:15:32;;;;;;;11.35;6.70;;;;;;;;;;5128914;27;20227;-74
2023/09/15 03:17:58;;;;;;;10.68;6.53;;;;;;;;;;5119961;27;20210;-74
2023/09/15 03:20:23;;;;;;;15.10;7.32;;;;;;;;;;5135467;27;20704;-74
2023/09/15 03:22:50;;;;;;;14.55;7.45;;;;;;;;;;5120454;27;20190;-74
2023/09/15 03:25:17;;;;;;;13.32;7.00;;;;;;;;;;5113720;27;20238;-75
2023/09/15 03:27:42;;;;;;;12.32;6.88;;;;;;;;;;5107932;27;20202;-75
2023/09/15 03:30:08;;;;;;;12.35;6.75;;;;;;;;;;5123843;27;20547;-74
2023/09/15 03:32:35;;;;;;;12.85;7.35;;;;;;;;;;5142423;27;20278;-74
2023/09/15 03:35:00;;;;;;;11.20;7.28;;;;;;;;;;5114825;27;20191;-75
2023/09/15 03:37:26;;;;;;;11.20;7.03;;;;;;;;;;5122673;27;20204;-75
2023/09/15 03:39:51;;;;;;;14.45;7.07;;;;;;;;;;5142482;27;20179;-74
2023/09/15 03:42:16;;;;;;;16.45;7.25;;;;;;;;;;5125464;27;20221;-74
2023/09/15 03:44:42;;;;;;;11.10;7.47;;;;;;;;;;5124690;27;20182;-75
2023/09/15 03:47:08;;;;;;;14.10;7.28;;;;;;;;;;5144409;27;20496;-75
2023/09/15 03:49:34;;;;;;;13.13;7.88;;;;;;;;;;5128511;27;20221;-75
2023/09/15 03:51:59;;;;;;;18.40;8.50;;;;;;;;;;5120340;27;20565;-75
2023/09/15 03:54:26;;;;;;;9.85;7.25;;;;;;;;;;5096625;27;20193;-74
2023/09/15 03:56:52;;;;;;;14.07;8.50;;;;;;;;;;5121233;27;20283;-75
2023/09/15 03:59:17;;;;;;;17.17;8.55;;;;;;;;;;5115575;27;20549;-74
2023/09/15 04:01:42;;;;;;;12.90;7.93;;;;;;;;;;5122856;27;20277;-74
2023/09/15 04:04:08;;;;;;;11.45;7.93;;;;;;;;;;5114204;27;20198;-75
2023/09/15 04:06:35;;;;;;;14.77;9.50;;;;;;;;;;5120511;27;20191;-75
2023/09/15 04:09:04;;;;;;;16.35;8.00;;;;;;;;;;5110926;27;20234;-74
2023/09/15 04:11:31;;;;;;;19.73;8.50;;;;;;;;;;5118764;27;20218;-74
2023/09/15 04:13:56;;;;;;;13.13;7.68;;;;;;;;;;5117265;27;20186;-74
2023/09/15 04:16:21;;;;;;;16.90;8.77;;;;;;;;;;5121021;27;20202;-74
2023/09/15 04:18:47;;;;;;;16.30;8.65;;;;;;;;;;5124776;27;20651;-74
2023/09/15 04:21:12;;;;;;;18.10;9.13;;;;;;;;;;5111157;27;20187;-75
2023/09/15 04:23:38;;;;;;;14.38;8.60;;;;;;;;;;5104794;27;20659;-75
2023/09/15 04:26:04;;;;;;;14.75;8.70;;;;;;;;;;5120922;27;20183;-75
2023/09/15 04:28:29;;;;;;;16.15;9.00;;;;;;;;;;5122656;27;20207;-75
2023/09/15 04:30:54;;;;;;;14.57;8.75;;;;;;;;;;5116592;27;20215;-75
2023/09/15 04:33:20;;;;;;;15.25;8.75;;;;;;;;;;5118679;27;20222;-74
2023/09/15 04:35:46;;;;;;;10.77;7.72;;;;;;;;;;5112758;27;20191;-74
2023/09/15 04:38:11;;;;;;;15.70;7.82;;;;;;;;;;5125780;27;20190;-74
2023/09/15 04:40:37;;;;;;;14.25;8.88;;;;;;;;;;5119036;27;20416;-75
2023/09/15 04:43:02;;;;;;;15.25;9.10;;;;;;;;;;5123466;27;20205;-74
2023/09/15 04:45:28;;;;;;;12.95;8.38;;;;;;;;;;5113484;27;20205;-76
2023/09/15 04:47:53;;;;;;;18.08;8.13;;;;;;;;;;5113949;27;20219;-74
2023/09/15 04:50:18;;;;;;;11.70;8.00;;;;;;;;;;5123372;27;20257;-74
2023/09/15 04:52:44;;;;;;;9.85;7.50;;;;;;;;;;5110368;28;20187;-74
2023/09/15 04:55:09;;;;;;;15.75;8.75;;;;;;;;;;5109393;27;20229;-73
2023/09/15 04:57:35;;;;;;;14.65;8.70;;;;;;;;;;5149443;27;20264;-73
2023/09/15 05:00:12;;;;;;;16.67;9.18;;;;;;;;;;5116621;27;20282;-73
2023/09/15 05:02:41;;;;;;;12.38;8.40;;;;;;;;;;5134544;27;20246;-74
2023/09/15 05:05:06;;;;;;;16.42;9.10;;;;;;;;;;5111851;27;20341;-74
2023/09/15 05:07:32;;;;;;;15.48;9.10;;;;;;;;;;5144531;27;20225;-74
2023/09/15 05:09:57;;;;;;;11.80;8.90;;;;;;;;;;5127646;27;20186;-74
2023/09/15 05:12:23;;;;;;;15.77;9.57;;;;;;;;;;5138852;27;20182;-74
2023/09/15 05:14:48;;;;;;;17.83;9.55;;;;;;;;;;5131917;27;20693;-74
2023/09/15 05:17:13;;;;;;;15.20;9.63;;;;;;;;;;5130380;27;20214;-74
2023/09/15 05:19:39;;;;;;;19.50;9.80;;;;;;;;;;5122967;27;20179;-74
2023/09/15 05:22:04;;;;;;;12.35;8.85;;;;;;;;;;5118248;27;20182;-74
2023/09/15 05:24:30;;;;;;;14.73;9.73;;;;;;;;;;5123162;27;20661;-74
2023/09/15 05:26:55;;;;;;;14.50;9.27;;;;;;;;;;5116530;27;20185;-74
2023/09/15 05:29:20;;;;;;;16.08;9.90;;;;;;;;;;5133113;27;20229;-74
2023/09/15 05:31:46;;;;;;;14.10;9.40;;;;;;;;;;5127948;27;20224;-74
2023/09/15 05:34:11;;;;;;;13.85;9.60;;;;;;;;;;5139515;27;20275;-74
2023/09/15 05:36:37;;;;;;;15.25;9.43;;;;;;;;;;4408502;27;10000736;-74
2023/09/15 05:39:02;;;;;;;15.13;9.88;;;;;;;;;;5134895;27;20187;-74
2023/09/15 05:41:28;;;;;;;12.55;8.52;;;;;;;;;;5136383;27;20253;-74
2023/09/15 05:43:53;;;;;;;17.38;10.70;;;;;;;;;;5113679;27;20186;-74
2023/09/15 05:46:19;;;;;;;16.95;10.02;;;;;;;;;;5116005;27;20544;-74
2023/09/15 05:48:44;;;;;;;17.05;9.55;;;;;;;;;;5131890;27;20640;-74
2023/09/15 05:51:10;;;;;;;14.88;9.70;;;;;;;;;;5120087;27;20183;-74
2023/09/15 05:53:36;;;;;;;13.43;9.75;;;;;;;;;;5145521;27;20217;-74
2023/09/15 05:56:02;;;;;;;14.23;10.48;;;;;;;;;;5143646;27;20229;-74
2023/09/15 05:58:27;;;;;;;15.20;9.98;;;;;;;;;;5123864;27;20232;-73
2023/09/15 06:00:55;;;;;;;16.83;9.65;;;;;;;;;;5117765;27;20219;-73
2023/09/15 06:03:24;;;;;;;18.80;10.18;;;;;;;;;;5134989;27;20187;-73
2023/09/15 06:05:50;;;;;;;16.67;10.10;;;;;;;;;;5139533;27;20182;-73
2023/09/15 06:08:18;;;;;;;14.20;10.15;;;;;;;;;;5143778;27;20217;-73
2023/09/15 06:10:43;;;;;;;13.93;10.38;;;;;;;;;;5137340;27;20603;-74
2023/09/15 06:13:09;;;;;;;20.88;11.00;;;;;;;;;;5127385;27;20190;-74
2023/09/15 06:15:34;;;;;;;16.08;10.68;;;;;;;;;;5128792;27;20212;-74
2023/09/15 06:18:02;;;;;;;19.40;10.57;;;;;;;;;;5141599;27;20217;-73
2023/09/15 06:20:30;;;;;;;14.95;9.90;;;;;;;;;;5122509;27;20244;-73
2023/09/15 06:22:56;;;;;;;21.95;10.55;;;;;;;;;;5136277;27;20259;-73
2023/09/15 06:25:21;;;;;;;20.10;10.95;;;;;;;;;;5146476;27;20182;-74
2023/09/15 06:27:47;;;;;;;18.83;10.65;;;;;;;;;;5136640;27;20202;-75
2023/09/15 06:30:12;;;;;;;20.60;11.27;;;;;;;;;;5138823;27;20221;-75
2023/09/15 06:32:38;;;;;;;16.55;10.65;;;;;;;;;;5100150;27;20648;-75
2023/09/15 06:35:04;;;;;;;15.15;10.55;;;;;;;;;;5139221;27;20182;-75
2023/09/15 06:37:29;;;;;;;14.40;10.77;;;;;;;;;;5141893;27;20197;-74
2023/09/15 06:39:54;;;;;;;17.60;10.45;;;;;;;;;;5130297;27;20546;-75
2023/09/15 06:42:20;;;;;;;15.93;10.20;;;;;;;;;;5127991;27;20213;-75
2023/09/15 06:44:45;;;;;;;15.48;10.25;;;;;;;;;;5141073;27;20210;-75
2023/09/15 06:47:11;;;;;;;18.50;10.43;;;;;;;;;;5146209;27;20221;-75
2023/09/15 06:49:36;;;;;;;17.00;10.90;;;;;;;;;;5116266;27;20254;-75
2023/09/15 06:52:01;;;;;;;16.35;10.48;;;;;;;;;;5135598;27;20202;-75
2023/09/15 06:54:27;;;;;;;19.67;10.73;;;;;;;;;;5144328;27;20179;-75
2023/09/15 06:56:52;;;;;;;17.10;10.23;;;;;;;;;;5143662;27;20228;-75
2023/09/15 06:59:18;;;;;;;14.57;9.85;;;;;;;;;;5129996;27;20226;-76
2023/09/15 07:01:43;;;;;;;22.27;11.02;;;;;;;;;;5149884;27;20639;-76
2023/09/15 07:04:12;;;;;;;19.33;10.45;;;;;;;;;;5118585;27;20198;-76
2023/09/15 07:06:38;;;;;;;18.98;10.23;;;;;;;;;;5128427;27;20185;-76
2023/09/15 07:09:04;;;;;;;17.95;10.30;;;;;;;;;;5103329;27;20672;-76
2023/09/15 07:11:29;;;;;;;11.55;9.35;;;;;;;;;;5132625;27;20194;-76
2023/09/15 07:13:55;;;;;;;15.07;9.98;;;;;;;;;;5135112;27;20198;-76
2023/09/15 07:16:20;;;;;;;10.52;8.68;;;;;;;;;;5108773;27;20222;-76
2023/09/15 07:18:45;;;;;;;13.38;8.80;;;;;;;;;;5125774;27;20206;-76
2023/09/15 07:21:11;;;;;;;16.40;9.85;;;;;;;;;;5138757;27;20198;-76
2023/09/15 07:23:36;;;;;;;14.82;8.57;;;;;;;;;;5148543;27;20201;-76
2023/09/15 07:26:01;;;;;;;11.40;8.50;;;;;;;;;;5128972;27;20193;-75
2023/09/15 07:28:27;;;;;;;15.88;8.65;;;;;;;;;;5139770;27;20283;-76
2023/09/15 07:31:04;;;;;;;17.52;7.78;;;;;;;;;;5140763;27;20229;-76
2023/09/15 07:33:30;;;;;;;14.90;8.88;;;;;;;;;;5131887;27;20578;-76
2023/09/15 07:36:05;;;;;;;9.82;8.25;;;;;;;;;;5123691;27;20312;-76
2023/09/15 07:38:31;;;;;;;12.98;7.88;;;;;;;;;;5143287;27;20193;-75
2023/09/15 07:40:57;;;;;;;14.27;7.70;;;;;;;;;;5129806;27;20179;-76
2023/09/15 07:43:22;;;;;;;13.18;8.02;;;;;;;;;;5122731;27;20270;-75
2023/09/15 07:45:50;;;;;;;10.95;7.10;;;;;;;;;;5132698;27;20550;-75
2023/09/15 07:48:15;;;;;;;10.40;7.38;;;;;;;;;;5143640;27;20226;-76
2023/09/15 07:50:41;;;;;;;14.35;8.00;;;;;;;;;;5131292;27;20201;-76
2023/09/15 07:53:06;;;;;;;15.85;7.70;;;;;;;;;;5113728;27;20187;-76
2023/09/15 07:55:31;;;;;;;10.77;7.88;;;;;;;;;;5133334;27;20234;-75
2023/09/15 07:57:57;;;;;;;11.82;7.28;;;;;;;;;;5150093;27;20210;-76
2023/09/15 08:00:23;;;;;;;12.93;7.40;;;;;;;;;;5151789;27;20217;-75
2023/09/15 08:02:48;;;;;;;11.85;7.13;;;;;;;;;;5132319;27;20187;-76
2023/09/15 08:05:14;;;;;;;12.60;7.45;;;;;;;;;;5112455;27;20638;-75
2023/09/15 08:07:44;;;;;;;14.00;6.90;;;;;;;;;;5113782;27;20223;-75
2023/09/15 08:10:10;;;;;;;10.55;6.80;;;;;;;;;;5141326;27;20268;-75
2023/09/15 08:12:35;;;;;;;13.15;6.80;;;;;;;;;;5142439;27;20186;-75
2023/09/15 08:15:01;;;;;;;14.55;6.80;;;;;;;;;;5137198;27;20787;-75
2023/09/15 08:17:27;;;;;;;12.48;5.60;;;;;;;;;;5141086;27;20205;-75
2023/09/15 08:19:54;;;;;;;8.93;5.57;;;;;;;;;;5111132;27;20187;-74
2023/09/15 08:22:19;;;;;;;13.52;5.63;;;;;;;;;;5123414;27;20276;-74
2023/09/15 08:24:44;;;;;;;13.75;6.50;;;;;;;;;;5116495;27;20570;-75
2023/09/15 08:27:10;;;;;;;9.18;5.75;;;;;;;;;;5116739;27;20179;-74
2023/09/15 08:29:35;;;;;;;9.10;5.10;;;;;;;;;;5106632;27;20584;-75
2023/09/15 08:32:00;;;;;;;8.48;5.00;;;;;;;;;;5124431;27;20218;-74
2023/09/15 08:34:26;;;;;;;11.40;5.13;;;;;;;;;;5132385;27;20202;-75
2023/09/15 08:36:51;;;;;;;9.32;4.97;;;;;;;;;;5133247;27;20543;-74
2023/09/15 08:39:17;;;;;;;8.10;4.32;;;;;;;;;;5133536;27;20198;-74
2023/09/15 08:41:50;;;;;;;9.88;4.07;;;;;;;;;;5143672;27;20247;-75
2023/09/15 08:44:17;;;;;;;11.10;4.65;;;;;;;;;;5112440;27;20189;-75
2023/09/15 08:46:43;;;;;;;7.85;4.15;;;;;;;;;;5122458;27;20210;-75
2023/09/15 08:49:09;;;;;;;9.65;3.47;;;;;;;;;;5121670;27;20230;-75
2023/09/15 08:51:36;;;;;;;9.07;3.55;;;;;;;;;;5147568;27;20185;-75
2023/09/15 08:54:01;;;;;;;10.98;3.78;;;;;;;;;;5122640;27;20637;-75
2023/09/15 08:56:27;;;;;;;8.43;2.95;;;;;;;;;;5142064;27;20273;-75
2023/09/15 08:58:53;;;;;;;6.97;2.85;;;;;;;;;;5126706;27;20178;-75
2023/09/15 09:01:19;;;;;;;7.80;3.13;;;;;;;;;;5137852;27;20217;-75
2023/09/15 09:03:45;;;;;;;6.75;2.75;;;;;;;;;;5141052;27;20280;-75
2023/09/15 09:06:12;;;;;;;5.50;2.80;;;;;;;;;;5113023;27;20269;-74
2023/09/15 09:08:42;;;;;;;9.07;2.70;;;;;;;;;;5122132;27;20214;-75
2023/09/15 09:11:08;;;;;;;10.75;2.80;;;;;;;;;;5133399;27;20257;-74
2023/09/15 09:13:34;;;;;;;5.80;3.05;;;;;;;;;;5115772;27;20183;-74
2023/09/15 09:16:00;;;;;;;5.28;2.60;;;;;;;;;;5133320;27;20190;-75
2023/09/15 09:18:26;;;;;;;7.68;2.70;;;;;;;;;;5111703;28;20399;-75
2023/09/15 09:20:51;;;;;;;7.95;3.03;;;;;;;;;;5101645;28;20750;-75
2023/09/15 09:23:18;;;;;;;8.30;2.50;;;;;;;;;;5133848;27;20658;-75
2023/09/15 09:25:45;;;;;;;7.63;2.53;;;;;;;;;;5112842;28;20198;-75
2023/09/15 09:28:10;;;;;;;7.53;2.30;;;;;;;;;;5114450;27;20224;-75
2023/09/15 09:30:36;;;;;;;7.60;2.05;;;;;;;;;;5135784;27;20194;-75
2023/09/15 09:33:01;;;;;;;4.28;2.20;;;;;;;;;;5128795;27;20186;-75
2023/09/15 09:35:27;;;;;;;6.80;2.47;;;;;;;;;;5108582;28;20222;-74
2023/09/15 09:37:54;;;;;;;5.90;2.22;;;;;;;;;;5112188;27;22405;-75
2023/09/15 09:40:21;;;;;;;9.02;2.60;;;;;;;;;;5116372;27;20262;-75
2023/09/15 09:42:48;;;;;;;6.07;2.10;;;;;;;;;;5116542;27;20247;-75
2023/09/15 09:45:14;;;;;;;6.68;2.20;;;;;;;;;;5119407;27;20700;-75
2023/09/15 09:47:40;;;;;;;5.88;1.92;;;;;;;;;;5138061;27;20182;-75
2023/09/15 09:50:09;;;;;;;12.40;2.58;;;;;;;;;;5139537;27;20186;-74
2023/09/15 09:52:35;;;;;;;10.63;2.20;;;;;;;;;;5147184;27;20198;-75
2023/09/15 09:55:04;;;;;;;6.85;2.08;;;;;;;;;;5126211;27;20721;-75
2023/09/15 09:57:29;;;;;;;6.43;1.80;;;;;;;;;;5129137;27;20282;-75
2023/09/15 09:59:55;;;;;;;11.27;2.40;;;;;;;;;;5120921;27;20179;-75
2023/09/15 10:02:20;;;;;;;7.60;1.90;;;;;;;;;;5132702;27;20806;-74
2023/09/15 10:04:46;;;;;;;4.25;1.90;;;;;;;;;;5140949;27;20190;-74
2023/09/15 10:07:12;;;;;;;4.88;1.75;;;;;;;;;;5122179;27;20305;-74
2023/09/15 10:09:39;;;;;;;3.38;1.75;;;;;;;;;;5119401;27;20215;-75
2023/09/15 10:12:04;;;;;;;5.50;2.10;;;;;;;;;;5140991;27;20280;-75
2023/09/15 10:14:30;;;;;;;4.15;1.88;;;;;;;;;;5133317;27;20699;-75
2023/09/15 10:16:57;;;;;;;5.95;1.63;;;;;;;;;;5119096;27;20200;-74
2023/09/15 10:19:24;;;;;;;7.03;1.95;;;;;;;;;;5114434;27;20710;-74
2023/09/15 10:21:50;;;;;;;6.20;2.10;;;;;;;;;;5121303;27;20320;-74
2023/09/15 10:24:16;;;;;;;7.18;2.20;;;;;;;;;;5148459;27;20193;-75
2023/09/15 10:26:41;;;;;;;4.97;1.90;;;;;;;;;;5143765;27;20182;-75
2023/09/15 10:29:10;;;;;;;6.40;1.95;;;;;;;;;;5116892;27;20240;-75
2023/09/15 10:31:35;;;;;;;7.45;2.15;;;;;;;;;;5128105;27;20175;-75
2023/09/15 10:34:04;;;;;;;4.47;2.60;;;;;;;;;;5133206;27;20178;-74
2023/09/15 10:36:30;;;;;;;5.88;2.40;;;;;;;;;;5146593;27;20664;-75
2023/09/15 10:38:57;;;;;;;4.55;2.33;;;;;;;;;;5138231;27;20174;-75
2023/09/15 10:41:27;;;;;;;6.40;2.33;;;;;;;;;;5137367;27;20305;-75
2023/09/15 10:43:52;;;;;;;8.10;1.80;;;;;;;;;;5133130;27;20385;-75
2023/09/15 10:46:18;;;;;;;4.68;1.98;;;;;;;;;;5121975;27;20273;-75
2023/09/15 10:48:48;;;;;;;4.63;2.00;;;;;;;;;;5141315;27;20783;-75
2023/09/15 10:51:17;;;;;;;4.07;2.10;;;;;;;;;;5131258;27;20251;-75
2023/09/15 10:53:48;;;;;;;7.38;2.53;;;;;;;;;;5124683;27;20244;-75
2023/09/15 10:56:18;;;;;;;5.20;2.63;;;;;;;;;;5109045;28;20745;-74
2023/09/15 10:58:46;;;;;;;6.75;2.67;;;;;;;;;;5112070;27;20180;-75
2023/09/15 11:01:13;;;;;;;5.60;2.80;;;;;;;;;;5129871;27;20549;-75
2023/09/15 11:03:39;;;;;;;5.13;2.17;;;;;;;;;;5132033;27;20278;-76
2023/09/15 11:06:08;;;;;;;6.00;2.53;;;;;;;;;;5116421;27;20217;-75
2023/09/15 11:08:34;;;;;;;6.32;2.50;;;;;;;;;;5123313;27;20207;-75
2023/09/15 11:11:04;;;;;;;6.57;2.40;;;;;;;;;;5109229;28;20198;-75
2023/09/15 11:13:30;;;;;;;6.47;3.05;;;;;;;;;;5097938;28;20183;-75
2023/09/15 11:15:56;;;;;;;6.03;2.97;;;;;;;;;;5111241;28;20274;-74
2023/09/15 11:18:21;;;;;;;9.10;2.63;;;;;;;;;;5112512;27;20294;-74
2023/09/15 11:20:46;;;;;;;5.60;3.08;;;;;;;;;;5123460;27;20564;-74
2023/09/15 11:23:15;;;;;;;7.80;2.83;;;;;;;;;;5110142;28;20203;-75
2023/09/15 11:25:40;;;;;;;6.15;2.70;;;;;;;;;;5116277;27;20191;-74
2023/09/15 11:28:15;;;;;;;6.75;3.22;;;;;;;;;;5113069;27;20207;-74
2023/09/15 11:30:42;;;;;;;9.40;3.08;;;;;;;;;;5125499;27;20286;-75
2023/09/15 11:33:07;;;;;;;5.50;2.30;;;;;;;;;;5110261;28;20252;-74
2023/09/15 11:35:34;;;;;;;6.97;2.33;;;;;;;;;;5124551;27;20190;-74
2023/09/15 11:38:01;;;;;;;7.32;2.50;;;;;;;;;;5130426;27;20198;-74
2023/09/15 11:40:27;;;;;;;7.50;2.58;;;;;;;;;;5131073;27;20277;-73
2023/09/15 11:42:59;;;;;;;6.72;2.78;;;;;;;;;;5125203;27;20269;-74
2023/09/15 11:45:26;;;;;;;6.53;2.45;;;;;;;;;;5110940;28;20199;-74
2023/09/15 11:47:54;;;;;;;7.68;2.90;;;;;;;;;;5126131;27;20682;-74
2023/09/15 11:50:20;;;;;;;8.15;2.25;;;;;;;;;;5130642;27;20646;-74
2023/09/15 11:52:45;;;;;;;7.18;2.40;;;;;;;;;;5117554;27;20633;-74
2023/09/15 11:55:21;;;;;;;7.65;3.05;;;;;;;;;;5128549;27;20278;-74
2023/09/15 11:57:47;;;;;;;7.88;3.05;;;;;;;;;;5130522;27;20248;-74
2023/09/15 12:00:15;;;;;;;7.10;2.80;;;;;;;;;;5132277;27;20182;-73
2023/09/15 12:02:43;;;;;;;5.90;2.85;;;;;;;;;;5130809;27;20213;-74
2023/09/15 12:05:08;;;;;;;7.32;3.13;;;;;;;;;;5136861;27;20259;-74
2023/09/15 12:07:36;;;;;;;5.45;2.67;;;;;;;;;;5112757;27;20598;-74
2023/09/15 12:10:03;;;;;;;8.23;2.97;;;;;;;;;;5148021;27;20189;-74
2023/09/15 12:12:28;;;;;;;7.22;2.45;;;;;;;;;;5115539;27;20203;-73
2023/09/15 12:15:00;;;;;;;5.68;2.75;;;;;;;;;;5114794;27;20236;-75
2023/09/15 12:17:28;;;;;;;7.93;3.00;;;;;;;;;;5118038;27;20320;-74
2023/09/15 12:19:59;;;;;;;7.03;3.60;;;;;;;;;;5118964;27;20198;-73
2023/09/15 12:22:32;;;;;;;7.20;3.40;;;;;;;;;;5109350;27;20224;-73
2023/09/15 12:25:00;;;;;;;9.90;3.17;;;;;;;;;;5118685;27;20267;-74
2023/09/15 12:27:29;;;;;;;8.30;2.85;;;;;;;;;;5124068;27;20194;-73
2023/09/15 12:29:56;;;;;;;8.05;3.15;;;;;;;;;;5116815;27;20293;-75
2023/09/15 12:32:29;;;;;;;5.15;2.97;;;;;;;;;;5129970;27;20350;-73
2023/09/15 12:34:54;;;;;;;4.22;2.65;;;;;;;;;;5135785;27;20760;-72
2023/09/15 12:37:20;;;;;;;6.78;2.92;;;;;;;;;;5117414;27;20261;-74
2023/09/15 12:39:45;;;;;;;6.50;3.70;;;;;;;;;;5130804;27;20189;-73
2023/09/15 12:42:10;;;;;;;7.97;3.00;;;;;;;;;;5117758;27;20249;-73
2023/09/15 12:44:37;;;;;;;6.72;3.03;;;;;;;;;;5139944;27;20181;-74
2023/09/15 12:47:04;;;;;;;8.85;2.90;;;;;;;;;;5120232;27;20554;-73
2023/09/15 12:49:29;;;;;;;7.63;2.90;;;;;;;;;;5132357;27;20207;-72
2023/09/15 12:51:55;;;;;;;8.32;3.20;;;;;;;;;;5137826;27;20270;-74
2023/09/15 12:54:22;;;;;;;7.75;3.47;;;;;;;;;;5107178;27;20183;-74
2023/09/15 12:56:52;;;;;;;7.13;3.22;;;;;;;;;;5100867;27;20528;-74
2023/09/15 12:59:19;;;;;;;6.53;3.33;;;;;;;;;;5128814;27;20197;-73
2023/09/15 13:01:45;;;;;;;6.70;2.80;;;;;;;;;;5123634;27;20186;-74
2023/09/15 13:04:10;;;;;;;5.07;2.75;;;;;;;;;;5109922;28;20600;-74
2023/09/15 13:06:35;;;;;;;8.25;3.53;;;;;;;;;;5122136;27;20224;-74
2023/09/15 13:09:01;;;;;;;5.55;2.75;;;;;;;;;;5109799;28;20199;-74
2023/09/15 13:11:26;;;;;;;8.77;3.33;;;;;;;;;;5114929;27;20211;-74
2023/09/15 13:13:52;;;;;;;10.73;3.17;;;;;;;;;;5120215;27;20265;-73
2023/09/15 13:16:18;;;;;;;8.52;3.40;;;;;;;;;;5128140;27;20248;-74
2023/09/15 13:18:43;;;;;;;7.38;3.13;;;;;;;;;;5106654;28;20236;-74
2023/09/15 13:21:09;;;;;;;6.47;3.03;;;;;;;;;;5117539;27;20186;-74
2023/09/15 13:23:35;;;;;;;6.70;2.70;;;;;;;;;;5114340;28;20201;-74
2023/09/15 13:26:00;;;;;;;7.55;2.70;;;;;;;;;;5112882;28;20206;-75
2023/09/15 13:28:25;;;;;;;4.80;2.67;;;;;;;;;;5124983;28;20222;-74
2023/09/15 13:30:54;;;;;;;6.05;3.05;;;;;;;;;;5110073;28;20197;-72
2023/09/15 13:33:19;;;;;;;4.93;2.60;;;;;;;;;;5106325;28;20195;-74
2023/09/15 13:35:44;;;;;;;8.02;2.97;;;;;;;;;;5109816;28;20187;-73
2023/09/15 13:38:10;;;;;;;4.75;3.17;;;;;;;;;;5116656;28;20529;-74
2023/09/15 13:40:35;;;;;;;7.03;2.95;;;;;;;;;;5114735;28;20248;-74
2023/09/15 13:43:00;;;;;;;6.20;2.92;;;;;;;;;;5121634;28;20210;-74
2023/09/15 13:45:26;;;;;;;9.15;3.40;;;;;;;;;;5112648;27;20187;-74
2023/09/15 13:47:51;;;;;;;9.27;3.17;;;;;;;;;;5113986;28;20628;-73
2023/09/15 13:50:17;;;;;;;9.90;3.78;;;;;;;;;;5116923;28;20209;-73
2023/09/15 13:52:42;;;;;;;6.88;3.50;;;;;;;;;;5109738;27;20658;-74
2023/09/15 13:55:08;;;;;;;5.82;3.25;;;;;;;;;;5109924;28;20206;-74
2023/09/15 13:57:36;;;;;;;6.88;3.80;;;;;;;;;;5130144;27;20230;-73
2023/09/15 14:00:02;;;;;;;7.55;3.45;;;;;;;;;;5129112;27;20223;-74
2023/09/15 14:02:29;;;;;;;10.25;3.50;;;;;;;;;;5133002;27;20239;-74
2023/09/15 14:04:54;;;;;;;8.43;3.33;;;;;;;;;;5121086;27;20591;-73
2023/09/15 14:07:20;;;;;;;8.43;3.60;;;;;;;;;;5142069;27;20193;-74
2023/09/15 14:09:45;;;;;;;8.15;3.05;;;;;;;;;;5119947;27;20262;-74
2023/09/15 14:12:11;;;;;;;9.50;3.42;;;;;;;;;;5142986;27;20217;-74
2023/09/15 14:14:37;;;;;;;4.90;3.08;;;;;;;;;;5129530;27;20714;-74
2023/09/15 14:17:04;;;;;;;8.07;3.40;;;;;;;;;;5111843;27;20281;-75
2023/09/15 14:19:30;;;;;;;5.80;2.97;;;;;;;;;;5128532;27;20737;-75
2023/09/15 14:21:55;;;;;;;5.70;2.90;;;;;;;;;;5117339;27;20179;-75
2023/09/15 14:24:23;;;;;;;6.85;3.13;;;;;;;;;;5128703;27;20688;-75
2023/09/15 14:26:48;;;;;;;6.47;3.50;;;;;;;;;;5109789;27;20252;-74
2023/09/15 14:29:14;;;;;;;5.90;2.50;;;;;;;;;;5117583;27;20218;-74
2023/09/15 14:31:41;;;;;;;7.68;2.83;;;;;;;;;;5125821;27;20190;-74